createdAt,value
2022-10-04T00:01:11.160Z,70.20
2022-10-04T00:03:44.383Z,71.04
2022-10-04T00:06:22.233Z,71.02
2022-10-04T00:08:53.902Z,71.66
2022-10-04T00:11:27.482Z,71.29
2022-10-04T00:13:59.772Z,70.74
2022-10-04T00:16:32.243Z,70.36
2022-10-04T00:19:25.020Z,70.16
2022-10-04T00:22:17.447Z,71.13
2022-10-04T00:25:21.618Z,70.86
2022-10-04T00:28:29.173Z,70.60
2022-10-04T00:31:45.070Z,71.40
2022-10-04T00:34:48.167Z,71.24
2022-10-04T00:37:17.651Z,71.18
2022-10-04T00:39:47.919Z,71.02
2022-10-04T00:42:54.752Z,71.29
2022-10-04T00:45:34.439Z,70.90
2022-10-04T00:48:31.964Z,69.75
2022-10-04T00:51:11.039Z,69.73
2022-10-04T00:53:49.749Z,70.05
2022-10-04T00:56:24.520Z,69.52
2022-10-04T00:59:12.616Z,70.45
2022-10-04T01:01:40.917Z,69.51
2022-10-04T01:04:24.683Z,69.31
2022-10-04T01:06:53.362Z,69.76
2022-10-04T01:09:23.673Z,69.85
2022-10-04T01:12:01.054Z,68.90
2022-10-04T01:14:36.636Z,70.13
2022-10-04T01:17:05.118Z,70.35
2022-10-04T01:19:34.511Z,69.55
2022-10-04T01:22:13.344Z,70.13
2022-10-04T01:24:44.940Z,69.40
2022-10-04T01:27:38.670Z,68.67
2022-10-04T01:30:10.425Z,69.34
2022-10-04T01:32:40.150Z,68.92
2022-10-04T01:35:10.452Z,68.85
2022-10-04T01:37:40.023Z,68.82
2022-10-04T01:40:11.062Z,69.35
2022-10-04T01:42:45.119Z,68.71
2022-10-04T01:45:20.747Z,68.67
2022-10-04T01:47:54.603Z,69.08
2022-10-04T01:50:30.291Z,69.18
2022-10-04T01:53:02.379Z,69.59
2022-10-04T01:55:35.265Z,69.36
2022-10-04T01:58:10.222Z,69.78
2022-10-04T02:00:44.528Z,70.42
2022-10-04T02:03:17.612Z,69.49
2022-10-04T02:05:51.848Z,69.53
2022-10-04T02:08:26.918Z,69.07
2022-10-04T02:10:57.336Z,68.74
2022-10-04T02:13:30.080Z,70.13
2022-10-04T02:16:00.686Z,68.95
2022-10-04T02:18:31.728Z,69.53
2022-10-04T02:21:00.552Z,69.59
2022-10-04T02:23:30.006Z,69.65
2022-10-04T02:25:59.411Z,69.35
2022-10-04T02:28:27.595Z,69.67
2022-10-04T02:31:10.197Z,69.71
2022-10-04T02:33:42.688Z,70.07
2022-10-04T02:36:12.033Z,69.79
2022-10-04T02:38:45.405Z,69.25
2022-10-04T02:41:25.675Z,69.29
2022-10-04T02:43:57.706Z,70.29
2022-10-04T02:46:29.470Z,69.11
2022-10-04T02:49:00.815Z,70.07
2022-10-04T02:51:35.044Z,69.92
2022-10-04T02:54:08.230Z,69.20
2022-10-04T02:56:38.660Z,69.29
2022-10-04T02:59:08.768Z,69.37
2022-10-04T03:01:51.963Z,69.64
2022-10-04T03:04:23.301Z,69.34
2022-10-04T03:06:51.826Z,69.75
2022-10-04T03:09:26.133Z,69.74
2022-10-04T03:11:59.126Z,69.75
2022-10-04T03:14:29.376Z,69.57
2022-10-04T03:17:01.691Z,69.70
2022-10-04T03:19:32.342Z,70.07
2022-10-04T03:22:03.665Z,69.87
2022-10-04T03:24:34.705Z,69.81
2022-10-04T03:27:07.739Z,69.30
2022-10-04T03:29:36.516Z,68.50
2022-10-04T03:32:06.531Z,68.71
2022-10-04T03:34:37.363Z,69.37
2022-10-04T03:37:12.794Z,69.88
2022-10-04T03:39:44.306Z,70.10
2022-10-04T03:42:17.376Z,69.91
2022-10-04T03:44:47.465Z,69.63
2022-10-04T03:47:20.683Z,68.74
2022-10-04T03:49:51.192Z,70.23
2022-10-04T03:52:23.886Z,70.33
2022-10-04T03:54:54.768Z,69.60
2022-10-04T03:57:24.530Z,70.26
2022-10-04T03:59:53.052Z,70.03
2022-10-04T04:02:31.061Z,68.92
2022-10-04T04:05:08.074Z,69.72
2022-10-04T04:07:40.978Z,69.82
2022-10-04T04:10:18.637Z,70.29
2022-10-04T04:12:55.986Z,69.98
2022-10-04T04:15:29.776Z,69.88
2022-10-04T04:18:03.117Z,69.21
2022-10-04T04:20:35.004Z,69.99
2022-10-04T04:23:06.861Z,70.47
2022-10-04T04:25:39.371Z,69.31
2022-10-04T04:28:22.033Z,68.69
2022-10-04T04:30:53.128Z,67.96
2022-10-04T04:33:29.844Z,69.03
2022-10-04T04:36:05.501Z,68.72
2022-10-04T04:38:35.434Z,68.15
2022-10-04T04:41:10.758Z,68.73
2022-10-04T04:43:44.958Z,68.65
2022-10-04T04:46:28.415Z,68.99
2022-10-04T04:49:02.614Z,67.61
2022-10-04T04:51:33.367Z,67.89
2022-10-04T04:54:05.751Z,67.64
2022-10-04T04:56:34.501Z,68.66
2022-10-04T04:59:08.155Z,68.02
2022-10-04T05:01:38.763Z,68.37
2022-10-04T05:04:18.026Z,67.73
2022-10-04T05:06:49.043Z,69.26
2022-10-04T05:09:24.879Z,69.53
2022-10-04T05:11:55.079Z,69.58
2022-10-04T05:14:24.695Z,69.09
2022-10-04T05:16:55.881Z,68.74
2022-10-04T05:19:28.858Z,68.88
2022-10-04T05:21:59.051Z,68.38
2022-10-04T05:24:30.443Z,68.29
2022-10-04T05:27:02.890Z,69.01
2022-10-04T05:29:36.281Z,69.02
2022-10-04T05:32:16.662Z,68.71
2022-10-04T05:34:50.076Z,68.38
2022-10-04T05:37:37.746Z,68.39
2022-10-04T05:40:18.005Z,69.59
2022-10-04T05:42:47.642Z,68.88
2022-10-04T05:45:21.035Z,68.63
2022-10-04T05:47:52.465Z,68.50
2022-10-04T05:50:24.288Z,67.84
2022-10-04T05:52:53.533Z,68.35
2022-10-04T05:55:30.025Z,67.38
2022-10-04T05:58:37.124Z,66.81
2022-10-04T06:01:20.666Z,66.35
2022-10-04T06:04:05.006Z,65.71
2022-10-04T06:06:42.222Z,66.59
2022-10-04T06:09:19.012Z,66.81
2022-10-04T06:12:02.322Z,66.66
2022-10-04T06:15:09.311Z,66.60
2022-10-04T06:17:58.466Z,67.70
2022-10-04T06:20:56.118Z,67.52
2022-10-04T06:23:27.483Z,67.29
2022-10-04T06:25:58.665Z,67.43
2022-10-04T06:28:32.829Z,66.62
2022-10-04T06:31:27.696Z,67.16
2022-10-04T06:34:18.475Z,66.27
2022-10-04T06:37:17.071Z,66.31
2022-10-04T06:40:32.832Z,66.03
2022-10-04T06:43:20.808Z,65.79
2022-10-04T06:46:02.964Z,65.43
2022-10-04T06:48:50.501Z,66.49
2022-10-04T06:51:33.524Z,65.54
2022-10-04T06:54:14.235Z,65.42
2022-10-04T06:57:05.266Z,66.38
2022-10-04T06:59:46.687Z,66.06
2022-10-04T07:02:20.265Z,66.48
2022-10-04T07:05:07.947Z,65.22
2022-10-04T07:07:42.154Z,63.76
2022-10-04T07:10:31.246Z,58.00
2022-10-04T07:13:31.270Z,48.71
2022-10-04T07:16:05.972Z,53.10
2022-10-04T07:18:44.230Z,59.05
2022-10-04T07:21:16.733Z,62.57
2022-10-04T07:23:52.108Z,64.10
2022-10-04T07:26:28.081Z,64.02
2022-10-04T07:29:18.956Z,63.53
2022-10-04T07:31:49.493Z,63.90
2022-10-04T07:34:22.658Z,64.77
2022-10-04T07:36:54.863Z,64.82
2022-10-04T07:39:28.909Z,65.19
2022-10-04T07:42:00.229Z,64.54
2022-10-04T07:44:36.888Z,65.73
2022-10-04T07:47:14.675Z,66.29
2022-10-04T07:49:43.377Z,65.86
2022-10-04T07:52:26.899Z,65.71
2022-10-04T07:55:07.572Z,65.73
2022-10-04T07:57:43.219Z,64.77
2022-10-04T08:00:17.725Z,61.69
2022-10-04T08:02:59.951Z,56.71
2022-10-04T08:05:35.802Z,58.02
2022-10-04T08:08:22.643Z,57.99
2022-10-04T08:11:05.379Z,59.50
2022-10-04T08:13:45.413Z,61.16
2022-10-04T08:16:23.793Z,60.24
2022-10-04T08:19:08.647Z,59.43
2022-10-04T08:21:46.780Z,60.16
2022-10-04T08:24:25.010Z,60.52
2022-10-04T08:27:19.988Z,57.13
2022-10-04T08:30:11.107Z,58.53
2022-10-04T08:33:06.447Z,57.84
2022-10-04T08:35:40.079Z,59.69
2022-10-04T08:38:34.224Z,49.13
2022-10-04T08:41:56.401Z,53.58
2022-10-04T08:45:12.182Z,57.34
2022-10-04T08:48:05.949Z,57.40
2022-10-04T08:51:04.767Z,55.25
2022-10-04T08:54:08.373Z,56.25
2022-10-04T08:56:59.591Z,57.98
2022-10-04T09:00:04.395Z,59.67
2022-10-04T09:02:59.181Z,60.48
2022-10-04T09:05:55.024Z,59.73
2022-10-04T09:09:14.171Z,57.56
2022-10-04T09:11:58.581Z,56.51
2022-10-04T09:14:53.377Z,56.45
2022-10-04T09:17:24.295Z,57.87
2022-10-04T09:20:14.038Z,59.65
2022-10-04T09:22:57.297Z,61.04
2022-10-04T09:25:52.890Z,60.93
2022-10-04T09:29:04.722Z,59.03
2022-10-04T09:31:52.791Z,59.33
2022-10-04T09:34:51.838Z,58.26
2022-10-04T09:37:41.220Z,57.70
2022-10-04T09:40:42.412Z,56.57
2022-10-04T09:43:45.965Z,56.71
2022-10-04T09:46:39.238Z,57.34
2022-10-04T09:49:22.643Z,54.25
2022-10-04T09:52:21.145Z,46.95
2022-10-04T09:55:05.185Z,40.18
2022-10-04T09:57:54.344Z,39.19
2022-10-04T10:00:25.349Z,39.11
2022-10-04T10:03:31.422Z,43.46
2022-10-04T10:06:30.332Z,46.55
2022-10-04T10:09:13.216Z,48.60
2022-10-04T10:12:06.419Z,48.58
2022-10-04T10:15:02.015Z,48.60
2022-10-04T10:17:38.038Z,44.17
2022-10-04T10:20:31.145Z,42.41
2022-10-04T10:23:13.622Z,40.14
2022-10-04T10:25:53.601Z,45.30
2022-10-04T10:28:50.480Z,43.92
2022-10-04T10:31:36.185Z,46.12
2022-10-04T10:34:22.733Z,47.61
2022-10-04T10:37:10.169Z,49.78
2022-10-04T10:40:04.144Z,46.22
2022-10-04T10:42:59.137Z,43.52
2022-10-04T10:45:59.007Z,40.89
2022-10-04T10:48:47.341Z,42.37
2022-10-04T10:51:23.024Z,42.62
2022-10-04T10:54:33.234Z,41.24
2022-10-04T10:57:21.748Z,44.95
2022-10-04T11:00:14.926Z,47.18
2022-10-04T11:03:23.884Z,43.63
2022-10-04T11:06:25.496Z,41.68
2022-10-04T11:09:31.255Z,40.13
2022-10-04T11:12:41.057Z,40.18
2022-10-04T11:15:53.025Z,40.97
2022-10-04T11:18:55.207Z,42.00
2022-10-04T11:22:08.648Z,40.39
2022-10-04T11:25:15.108Z,43.24
2022-10-04T11:27:57.404Z,43.97
2022-10-04T11:30:29.897Z,40.01
2022-10-04T11:33:35.867Z,41.79
2022-10-04T11:36:28.521Z,39.88
2022-10-04T11:39:07.774Z,41.72
2022-10-04T11:41:50.350Z,41.46
2022-10-04T11:44:53.238Z,41.61
2022-10-04T11:47:36.330Z,42.55
2022-10-04T11:50:28.732Z,43.25
2022-10-04T11:53:33.679Z,43.06
2022-10-04T11:56:17.030Z,42.99
2022-10-04T11:58:57.405Z,40.95
2022-10-04T12:02:03.106Z,40.11
2022-10-04T12:05:01.468Z,41.72
2022-10-04T12:07:50.528Z,40.97
2022-10-04T12:10:25.132Z,39.68
2022-10-04T12:13:35.479Z,40.92
2022-10-04T12:16:19.049Z,42.13
2022-10-04T12:19:15.924Z,42.63
2022-10-04T12:22:08.481Z,41.95
2022-10-04T12:25:09.849Z,42.27
2022-10-04T12:28:11.455Z,40.34
2022-10-04T12:30:54.215Z,42.99
2022-10-04T12:33:28.569Z,41.68
2022-10-04T12:36:13.575Z,44.52
2022-10-04T12:39:28.474Z,44.05
2022-10-04T12:42:12.609Z,44.72
2022-10-04T12:44:55.912Z,46.36
2022-10-04T12:47:48.214Z,47.46
2022-10-04T12:50:28.705Z,48.16
2022-10-04T12:53:14.588Z,47.58
2022-10-04T12:56:02.705Z,45.60
2022-10-04T12:58:47.097Z,43.87
2022-10-04T13:01:22.863Z,42.78
2022-10-04T13:04:11.373Z,40.52
2022-10-04T13:06:55.135Z,44.32
2022-10-04T13:09:37.245Z,41.82
2022-10-04T13:12:22.789Z,43.92
2022-10-04T13:15:06.363Z,42.97
2022-10-04T13:17:43.281Z,46.76
2022-10-04T13:20:38.713Z,44.41
2022-10-04T13:23:14.782Z,43.63
2022-10-04T13:26:04.515Z,44.04
2022-10-04T13:28:39.604Z,43.47
2022-10-04T13:31:40.150Z,43.41
2022-10-04T13:34:19.830Z,44.72
2022-10-04T13:37:04.378Z,44.78
2022-10-04T13:39:52.400Z,42.77
2022-10-04T13:42:38.481Z,43.97
2022-10-04T13:45:34.266Z,45.74
2022-10-04T13:48:32.626Z,44.98
2022-10-04T13:51:25.919Z,46.44
2022-10-04T13:54:21.640Z,46.98
2022-10-04T13:56:58.755Z,45.10
2022-10-04T13:59:38.454Z,45.57
2022-10-04T14:02:48.846Z,45.12
2022-10-04T14:06:10.545Z,44.38
2022-10-04T14:09:02.172Z,43.32
2022-10-04T14:12:06.803Z,44.35
2022-10-04T14:15:11.265Z,44.08
2022-10-04T14:18:21.389Z,45.15
2022-10-04T14:21:31.789Z,45.64
2022-10-04T14:24:39.881Z,45.83
2022-10-04T14:27:40.499Z,44.78
2022-10-04T14:30:18.825Z,45.45
2022-10-04T14:33:16.688Z,44.64
2022-10-04T14:35:53.140Z,43.90
2022-10-04T14:38:45.723Z,44.15
2022-10-04T14:41:46.350Z,45.00
2022-10-04T14:44:57.306Z,46.47
2022-10-04T14:48:06.292Z,45.28
2022-10-04T14:50:47.426Z,45.74
2022-10-04T14:53:24.539Z,46.47
2022-10-04T14:56:27.806Z,47.44
2022-10-04T14:59:10.672Z,48.14
2022-10-04T15:01:42.228Z,47.12
2022-10-04T15:04:32.593Z,45.66
2022-10-04T15:07:04.508Z,45.45
2022-10-04T15:09:55.719Z,44.11
2022-10-04T15:13:10.542Z,44.81
2022-10-04T15:15:55.597Z,43.86
2022-10-04T15:18:35.964Z,43.99
2022-10-04T15:21:12.327Z,43.61
2022-10-04T15:23:44.041Z,43.60
2022-10-04T15:26:45.435Z,44.93
2022-10-04T15:29:24.485Z,46.35
2022-10-04T15:32:06.486Z,45.52
2022-10-04T15:34:40.145Z,43.78
2022-10-04T15:37:23.146Z,45.36
2022-10-04T15:40:15.175Z,45.19
2022-10-04T15:43:01.443Z,44.94
2022-10-04T15:46:10.054Z,45.56
2022-10-04T15:49:09.358Z,46.36
2022-10-04T15:51:51.473Z,46.92
2022-10-04T15:54:52.165Z,48.74
2022-10-04T15:57:31.465Z,48.98
2022-10-04T16:00:11.764Z,49.36
2022-10-04T16:02:55.636Z,48.44
2022-10-04T16:05:39.484Z,49.37
2022-10-04T16:08:40.349Z,49.95
2022-10-04T16:11:28.982Z,50.46
2022-10-04T16:14:09.944Z,52.25
2022-10-04T16:17:03.587Z,52.49
2022-10-04T16:20:00.846Z,53.61
2022-10-04T16:22:32.044Z,54.78
2022-10-04T16:25:21.021Z,55.36
2022-10-04T16:28:08.465Z,55.65
2022-10-04T16:30:43.490Z,56.33
2022-10-04T16:33:30.431Z,57.18
2022-10-04T16:36:12.934Z,57.18
2022-10-04T16:39:09.084Z,57.78
2022-10-04T16:41:44.355Z,58.35
2022-10-04T16:44:34.045Z,58.42
2022-10-04T16:47:14.876Z,59.08
2022-10-04T16:49:51.644Z,59.03
2022-10-04T16:52:39.170Z,59.40
2022-10-04T16:55:35.449Z,59.99
2022-10-04T16:58:52.596Z,60.21
2022-10-04T17:01:55.615Z,61.02
2022-10-04T17:04:52.143Z,61.37
2022-10-04T17:07:28.759Z,62.13
2022-10-04T17:10:03.594Z,61.45
2022-10-04T17:12:45.527Z,61.29
2022-10-04T17:15:32.407Z,61.34
2022-10-04T17:18:13.350Z,61.36
2022-10-04T17:20:52.129Z,61.13
2022-10-04T17:23:43.124Z,61.17
2022-10-04T17:26:25.401Z,61.70
2022-10-04T17:28:59.503Z,62.01
2022-10-04T17:31:33.433Z,61.84
2022-10-04T17:34:12.772Z,62.95
2022-10-04T17:36:44.458Z,63.04
2022-10-04T17:39:22.833Z,62.72
2022-10-04T17:41:59.402Z,62.72
2022-10-04T17:44:52.931Z,62.85
2022-10-04T17:47:27.324Z,63.31
2022-10-04T17:50:22.335Z,62.94
2022-10-04T17:53:14.014Z,63.63
2022-10-04T17:55:47.790Z,63.85
2022-10-04T17:58:19.858Z,64.46
2022-10-04T18:00:56.922Z,64.23
2022-10-04T18:03:33.860Z,64.47
2022-10-04T18:06:12.472Z,64.16
2022-10-04T18:08:46.692Z,64.46
2022-10-04T18:11:23.977Z,63.94
2022-10-04T18:13:59.045Z,64.07
2022-10-04T18:16:31.908Z,63.78
2022-10-04T18:19:24.630Z,63.79
2022-10-04T18:21:55.085Z,63.99
2022-10-04T18:24:30.627Z,63.64
2022-10-04T18:27:00.865Z,63.29
2022-10-04T18:29:39.947Z,62.81
2022-10-04T18:32:32.712Z,63.84
2022-10-04T18:35:04.252Z,64.68
2022-10-04T18:37:38.733Z,64.00
2022-10-04T18:40:17.296Z,64.73
2022-10-04T18:42:53.450Z,64.26
2022-10-04T18:45:25.605Z,64.38
2022-10-04T18:47:56.479Z,64.38
2022-10-04T18:50:36.619Z,64.40
2022-10-04T18:53:41.129Z,64.41
2022-10-04T18:56:10.662Z,64.94
2022-10-04T18:59:06.963Z,65.25
2022-10-04T19:02:03.439Z,65.07
2022-10-04T19:04:50.392Z,66.36
2022-10-04T19:07:25.125Z,66.15
2022-10-04T19:10:17.665Z,66.46
2022-10-04T19:12:57.283Z,66.23
2022-10-04T19:15:41.659Z,66.54
2022-10-04T19:18:36.915Z,65.69
2022-10-04T19:21:13.972Z,65.36
2022-10-04T19:24:07.755Z,65.39
2022-10-04T19:26:40.549Z,65.48
2022-10-04T19:29:19.432Z,65.39
2022-10-04T19:31:55.173Z,65.26
2022-10-04T19:34:34.825Z,65.81
2022-10-04T19:37:11.815Z,66.87
2022-10-04T19:39:52.246Z,66.51
2022-10-04T19:42:24.626Z,65.52
2022-10-04T19:45:06.132Z,65.57
2022-10-04T19:47:45.966Z,65.00
2022-10-04T19:50:21.439Z,65.83
2022-10-04T19:52:54.414Z,65.08
2022-10-04T19:55:27.556Z,64.89
2022-10-04T19:58:07.225Z,64.55
2022-10-04T20:00:35.987Z,64.42
2022-10-04T20:03:11.256Z,65.37
2022-10-04T20:05:44.314Z,64.85
2022-10-04T20:08:15.506Z,64.98
2022-10-04T20:10:44.883Z,64.85
2022-10-04T20:13:23.636Z,64.54
2022-10-04T20:15:54.495Z,64.15
2022-10-04T20:19:09.675Z,63.37
2022-10-04T20:21:38.676Z,63.10
2022-10-04T20:24:17.506Z,62.92
2022-10-04T20:26:54.787Z,62.64
2022-10-04T20:30:04.264Z,62.66
2022-10-04T20:32:59.678Z,62.64
2022-10-04T20:36:05.875Z,61.93
2022-10-04T20:38:54.857Z,62.36
2022-10-04T20:42:04.163Z,62.29
2022-10-04T20:45:00.117Z,61.38
2022-10-04T20:47:47.737Z,61.34
2022-10-04T20:50:34.922Z,60.62
2022-10-04T20:53:06.770Z,60.81
2022-10-04T20:55:39.040Z,61.64
2022-10-04T20:58:25.713Z,61.95
2022-10-04T21:00:54.759Z,61.47
2022-10-04T21:03:23.454Z,61.01
2022-10-04T21:06:03.999Z,60.77
2022-10-04T21:08:32.164Z,60.90
2022-10-04T21:11:05.868Z,60.93
2022-10-04T21:14:02.180Z,60.48
2022-10-04T21:16:52.238Z,60.04
2022-10-04T21:19:51.379Z,59.54
2022-10-04T21:22:39.537Z,60.33
2022-10-04T21:25:28.377Z,60.15
2022-10-04T21:28:40.098Z,59.88
2022-10-04T21:31:09.533Z,59.48
2022-10-04T21:33:38.333Z,59.85
2022-10-04T21:36:07.331Z,59.74
2022-10-04T21:38:35.331Z,59.18
2022-10-04T21:41:03.628Z,58.96
2022-10-04T21:43:31.708Z,59.66
2022-10-04T21:46:00.222Z,59.80
2022-10-04T21:48:29.660Z,59.71
2022-10-04T21:50:57.655Z,59.57
2022-10-04T21:53:25.749Z,59.84
2022-10-04T21:55:53.851Z,59.83
2022-10-04T21:58:22.111Z,59.97
2022-10-04T22:00:50.534Z,60.13
2022-10-04T22:03:18.611Z,59.99
2022-10-04T22:05:48.119Z,59.86
2022-10-04T22:08:16.182Z,59.91
2022-10-04T22:10:45.708Z,59.51
2022-10-04T22:13:13.806Z,59.68
2022-10-04T22:15:41.962Z,59.79
2022-10-04T22:18:10.113Z,59.57
2022-10-04T22:20:38.631Z,60.26
2022-10-04T22:23:20.761Z,60.04
2022-10-04T22:25:48.846Z,60.43
2022-10-04T22:28:23.000Z,60.90
2022-10-04T22:30:52.373Z,61.54
2022-10-04T22:33:32.023Z,61.10
2022-10-04T22:36:06.561Z,61.57
2022-10-04T22:38:36.345Z,61.55
2022-10-04T22:41:10.267Z,61.17
2022-10-04T22:43:38.317Z,61.30
2022-10-04T22:46:06.944Z,61.44
2022-10-04T22:48:35.531Z,61.46
2022-10-04T22:51:03.629Z,61.78
2022-10-04T22:53:31.665Z,61.64
2022-10-04T22:56:01.183Z,61.09
2022-10-04T22:58:29.312Z,61.99
2022-10-04T23:00:57.500Z,61.58
2022-10-04T23:03:30.833Z,61.30
2022-10-04T23:05:59.365Z,60.70
2022-10-04T23:08:27.757Z,60.59
2022-10-04T23:10:56.673Z,60.46
2022-10-04T23:13:27.171Z,60.00
2022-10-04T23:16:00.499Z,60.35
2022-10-04T23:18:30.094Z,60.71
2022-10-04T23:21:00.983Z,60.91
2022-10-04T23:23:31.618Z,60.77
2022-10-04T23:25:59.753Z,60.64
2022-10-04T23:28:29.429Z,61.14
2022-10-04T23:31:03.327Z,60.55
2022-10-04T23:33:31.885Z,60.28
2022-10-04T23:36:00.183Z,61.29
2022-10-04T23:38:30.441Z,61.59
2022-10-04T23:40:58.644Z,61.48
2022-10-04T23:43:27.030Z,60.92
2022-10-04T23:45:58.815Z,61.37
2022-10-04T23:48:32.035Z,61.83
2022-10-04T23:51:01.020Z,61.83
2022-10-04T23:53:31.378Z,61.49
2022-10-04T23:56:03.014Z,61.64
2022-10-04T23:58:35.170Z,62.48
